sensor_id;sensor_type;location;lat;lon;timestamp;P1;durP1;ratioP1;P2;durP2;ratioP2
26042;SDS011;13818;52.156;5.382;2023-02-23T00:02:05;70.55;;;22.42;;
26042;SDS011;13818;52.156;5.382;2023-02-23T00:04:32;73.57;;;23.10;;
26042;SDS011;13818;52.156;5.382;2023-02-23T00:06:59;65.60;;;21.83;;
26042;SDS011;13818;52.156;5.382;2023-02-23T00:09:25;66.13;;;22.63;;
26042;SDS011;13818;52.156;5.382;2023-02-23T00:11:59;67.53;;;22.35;;
26042;SDS011;13818;52.156;5.382;2023-02-23T00:14:31;68.47;;;21.77;;
26042;SDS011;13818;52.156;5.382;2023-02-23T00:16:59;66.10;;;23.10;;
26042;SDS011;13818;52.156;5.382;2023-02-23T00:19:27;73.35;;;24.05;;
26042;SDS011;13818;52.156;5.382;2023-02-23T00:21:54;68.22;;;23.05;;
26042;SDS011;13818;52.156;5.382;2023-02-23T00:24:22;66.97;;;23.23;;
26042;SDS011;13818;52.156;5.382;2023-02-23T00:26:51;73.60;;;22.85;;
26042;SDS011;13818;52.156;5.382;2023-02-23T00:29:18;70.28;;;22.98;;
26042;SDS011;13818;52.156;5.382;2023-02-23T00:31:46;69.72;;;22.83;;
26042;SDS011;13818;52.156;5.382;2023-02-23T00:34:14;68.85;;;23.00;;
26042;SDS011;13818;52.156;5.382;2023-02-23T00:36:48;76.20;;;24.17;;
26042;SDS011;13818;52.156;5.382;2023-02-23T00:39:15;74.03;;;25.00;;
26042;SDS011;13818;52.156;5.382;2023-02-23T00:41:46;78.90;;;24.30;;
26042;SDS011;13818;52.156;5.382;2023-02-23T00:44:13;78.38;;;24.13;;
26042;SDS011;13818;52.156;5.382;2023-02-23T00:46:40;68.43;;;23.42;;
26042;SDS011;13818;52.156;5.382;2023-02-23T00:49:08;79.70;;;26.80;;
26042;SDS011;13818;52.156;5.382;2023-02-23T00:51:36;82.15;;;25.67;;
26042;SDS011;13818;52.156;5.382;2023-02-23T00:54:04;76.50;;;24.13;;
26042;SDS011;13818;52.156;5.382;2023-02-23T00:56:32;81.15;;;25.90;;
26042;SDS011;13818;52.156;5.382;2023-02-23T00:58:59;72.25;;;24.23;;
26042;SDS011;13818;52.156;5.382;2023-02-23T01:01:26;80.82;;;26.23;;
26042;SDS011;13818;52.156;5.382;2023-02-23T01:03:52;80.95;;;24.67;;
26042;SDS011;13818;52.156;5.382;2023-02-23T01:06:19;77.78;;;28.13;;
26042;SDS011;13818;52.156;5.382;2023-02-23T01:08:46;77.97;;;25.65;;
26042;SDS011;13818;52.156;5.382;2023-02-23T01:11:16;76.90;;;26.02;;
26042;SDS011;13818;52.156;5.382;2023-02-23T01:13:46;77.97;;;24.90;;
26042;SDS011;13818;52.156;5.382;2023-02-23T01:16:14;76.17;;;25.40;;
26042;SDS011;13818;52.156;5.382;2023-02-23T01:18:43;75.45;;;25.77;;
26042;SDS011;13818;52.156;5.382;2023-02-23T01:21:14;78.00;;;26.70;;
26042;SDS011;13818;52.156;5.382;2023-02-23T01:23:41;81.45;;;26.58;;
26042;SDS011;13818;52.156;5.382;2023-02-23T01:26:13;79.05;;;27.10;;
26042;SDS011;13818;52.156;5.382;2023-02-23T01:28:43;75.10;;;23.88;;
26042;SDS011;13818;52.156;5.382;2023-02-23T01:31:09;78.45;;;25.77;;
26042;SDS011;13818;52.156;5.382;2023-02-23T01:33:36;85.20;;;25.90;;
26042;SDS011;13818;52.156;5.382;2023-02-23T01:36:03;73.90;;;27.38;;
26042;SDS011;13818;52.156;5.382;2023-02-23T01:38:29;83.85;;;27.50;;
26042;SDS011;13818;52.156;5.382;2023-02-23T01:40:56;79.15;;;26.75;;
26042;SDS011;13818;52.156;5.382;2023-02-23T01:43:24;80.50;;;26.35;;
26042;SDS011;13818;52.156;5.382;2023-02-23T01:45:51;77.28;;;26.63;;
26042;SDS011;13818;52.156;5.382;2023-02-23T01:48:20;87.72;;;28.42;;
26042;SDS011;13818;52.156;5.382;2023-02-23T01:50:51;81.25;;;26.05;;
26042;SDS011;13818;52.156;5.382;2023-02-23T01:53:21;84.68;;;26.08;;
26042;SDS011;13818;52.156;5.382;2023-02-23T01:55:50;77.75;;;26.70;;
26042;SDS011;13818;52.156;5.382;2023-02-23T01:58:20;78.85;;;24.60;;
26042;SDS011;13818;52.156;5.382;2023-02-23T02:00:50;82.25;;;27.15;;
26042;SDS011;13818;52.156;5.382;2023-02-23T02:03:22;78.13;;;26.60;;
26042;SDS011;13818;52.156;5.382;2023-02-23T02:05:53;85.35;;;26.35;;
26042;SDS011;13818;52.156;5.382;2023-02-23T02:08:21;86.78;;;27.90;;
26042;SDS011;13818;52.156;5.382;2023-02-23T02:10:50;80.70;;;25.50;;
26042;SDS011;13818;52.156;5.382;2023-02-23T02:15:56;83.93;;;27.33;;
26042;SDS011;13818;52.156;5.382;2023-02-23T02:18:32;79.30;;;24.95;;
26042;SDS011;13818;52.156;5.382;2023-02-23T02:21:12;83.05;;;26.63;;
26042;SDS011;13818;52.156;5.382;2023-02-23T02:23:57;74.63;;;25.92;;
26042;SDS011;13818;52.156;5.382;2023-02-23T02:26:41;78.93;;;25.83;;
26042;SDS011;13818;52.156;5.382;2023-02-23T02:32:20;81.97;;;26.13;;
26042;SDS011;13818;52.156;5.382;2023-02-23T02:38:20;74.68;;;26.90;;
26042;SDS011;13818;52.156;5.382;2023-02-23T02:41:00;74.25;;;25.20;;
26042;SDS011;13818;52.156;5.382;2023-02-23T02:43:35;82.72;;;27.67;;
26042;SDS011;13818;52.156;5.382;2023-02-23T02:46:08;81.00;;;27.23;;
26042;SDS011;13818;52.156;5.382;2023-02-23T02:48:43;78.95;;;24.90;;
26042;SDS011;13818;52.156;5.382;2023-02-23T02:51:18;84.60;;;25.90;;
26042;SDS011;13818;52.156;5.382;2023-02-23T02:53:51;76.93;;;24.38;;
26042;SDS011;13818;52.156;5.382;2023-02-23T02:56:31;82.10;;;26.42;;
26042;SDS011;13818;52.156;5.382;2023-02-23T02:59:05;87.55;;;26.05;;
26042;SDS011;13818;52.156;5.382;2023-02-23T03:01:52;76.93;;;24.33;;
26042;SDS011;13818;52.156;5.382;2023-02-23T03:04:37;79.85;;;26.05;;
26042;SDS011;13818;52.156;5.382;2023-02-23T03:07:22;81.20;;;24.45;;
26042;SDS011;13818;52.156;5.382;2023-02-23T03:10:14;85.05;;;26.63;;
26042;SDS011;13818;52.156;5.382;2023-02-23T03:13:10;73.47;;;25.35;;
26042;SDS011;13818;52.156;5.382;2023-02-23T03:16:04;69.38;;;24.02;;
26042;SDS011;13818;52.156;5.382;2023-02-23T03:19:00;78.95;;;24.88;;
26042;SDS011;13818;52.156;5.382;2023-02-23T03:21:52;81.78;;;26.27;;
26042;SDS011;13818;52.156;5.382;2023-02-23T03:24:45;79.18;;;26.77;;
26042;SDS011;13818;52.156;5.382;2023-02-23T03:27:41;82.78;;;24.58;;
26042;SDS011;13818;52.156;5.382;2023-02-23T03:30:33;81.70;;;23.95;;
26042;SDS011;13818;52.156;5.382;2023-02-23T03:33:25;78.90;;;25.27;;
26042;SDS011;13818;52.156;5.382;2023-02-23T03:36:16;81.60;;;25.10;;
26042;SDS011;13818;52.156;5.382;2023-02-23T03:39:08;80.15;;;27.13;;
26042;SDS011;13818;52.156;5.382;2023-02-23T03:41:58;74.20;;;23.15;;
26042;SDS011;13818;52.156;5.382;2023-02-23T03:44:46;89.25;;;26.25;;
26042;SDS011;13818;52.156;5.382;2023-02-23T03:47:34;82.38;;;24.10;;
26042;SDS011;13818;52.156;5.382;2023-02-23T03:50:24;77.75;;;25.00;;
26042;SDS011;13818;52.156;5.382;2023-02-23T03:53:15;77.78;;;25.05;;
26042;SDS011;13818;52.156;5.382;2023-02-23T03:56:02;79.78;;;24.70;;
26042;SDS011;13818;52.156;5.382;2023-02-23T03:58:50;77.82;;;25.80;;
26042;SDS011;13818;52.156;5.382;2023-02-23T04:01:43;71.40;;;24.10;;
26042;SDS011;13818;52.156;5.382;2023-02-23T04:04:28;74.00;;;24.20;;
26042;SDS011;13818;52.156;5.382;2023-02-23T04:07:14;84.07;;;27.25;;
26042;SDS011;13818;52.156;5.382;2023-02-23T04:10:00;77.68;;;25.63;;
26042;SDS011;13818;52.156;5.382;2023-02-23T04:12:46;80.85;;;24.98;;
26042;SDS011;13818;52.156;5.382;2023-02-23T04:15:38;75.55;;;25.15;;
26042;SDS011;13818;52.156;5.382;2023-02-23T04:18:12;82.63;;;24.13;;
26042;SDS011;13818;52.156;5.382;2023-02-23T04:20:39;84.00;;;26.02;;
26042;SDS011;13818;52.156;5.382;2023-02-23T04:23:06;78.00;;;26.15;;
26042;SDS011;13818;52.156;5.382;2023-02-23T04:25:33;86.00;;;27.55;;
26042;SDS011;13818;52.156;5.382;2023-02-23T04:27:59;80.50;;;26.08;;
26042;SDS011;13818;52.156;5.382;2023-02-23T04:30:26;80.28;;;24.92;;
26042;SDS011;13818;52.156;5.382;2023-02-23T04:32:53;86.45;;;25.60;;
26042;SDS011;13818;52.156;5.382;2023-02-23T04:35:24;81.93;;;25.20;;
26042;SDS011;13818;52.156;5.382;2023-02-23T04:37:52;88.03;;;26.25;;
26042;SDS011;13818;52.156;5.382;2023-02-23T04:40:19;75.85;;;23.40;;
26042;SDS011;13818;52.156;5.382;2023-02-23T04:42:46;79.10;;;25.00;;
26042;SDS011;13818;52.156;5.382;2023-02-23T04:45:13;78.55;;;24.27;;
26042;SDS011;13818;52.156;5.382;2023-02-23T04:47:40;81.15;;;25.70;;
26042;SDS011;13818;52.156;5.382;2023-02-23T04:50:07;87.75;;;25.52;;
26042;SDS011;13818;52.156;5.382;2023-02-23T04:52:35;84.90;;;26.20;;
26042;SDS011;13818;52.156;5.382;2023-02-23T04:55:03;82.32;;;25.65;;
26042;SDS011;13818;52.156;5.382;2023-02-23T04:57:31;74.25;;;25.25;;
26042;SDS011;13818;52.156;5.382;2023-02-23T04:59:57;84.50;;;24.77;;
26042;SDS011;13818;52.156;5.382;2023-02-23T05:02:24;84.60;;;25.10;;
26042;SDS011;13818;52.156;5.382;2023-02-23T05:04:50;76.05;;;24.10;;
26042;SDS011;13818;52.156;5.382;2023-02-23T05:07:17;80.18;;;23.92;;
26042;SDS011;13818;52.156;5.382;2023-02-23T05:09:45;82.63;;;25.95;;
26042;SDS011;13818;52.156;5.382;2023-02-23T05:12:11;77.53;;;24.42;;
26042;SDS011;13818;52.156;5.382;2023-02-23T05:14:38;84.88;;;24.70;;
26042;SDS011;13818;52.156;5.382;2023-02-23T05:17:04;81.35;;;25.20;;
26042;SDS011;13818;52.156;5.382;2023-02-23T05:19:32;87.03;;;25.00;;
26042;SDS011;13818;52.156;5.382;2023-02-23T05:21:58;81.95;;;24.08;;
26042;SDS011;13818;52.156;5.382;2023-02-23T05:24:25;84.40;;;24.70;;
26042;SDS011;13818;52.156;5.382;2023-02-23T05:26:53;77.45;;;24.95;;
26042;SDS011;13818;52.156;5.382;2023-02-23T05:29:20;83.22;;;25.83;;
26042;SDS011;13818;52.156;5.382;2023-02-23T05:31:47;73.50;;;23.60;;
26042;SDS011;13818;52.156;5.382;2023-02-23T05:34:14;80.22;;;23.48;;
26042;SDS011;13818;52.156;5.382;2023-02-23T05:36:40;80.25;;;23.85;;
26042;SDS011;13818;52.156;5.382;2023-02-23T05:39:07;77.82;;;24.92;;
26042;SDS011;13818;52.156;5.382;2023-02-23T05:41:34;85.00;;;24.85;;
26042;SDS011;13818;52.156;5.382;2023-02-23T05:44:02;81.93;;;23.92;;
26042;SDS011;13818;52.156;5.382;2023-02-23T05:46:28;92.93;;;26.23;;
26042;SDS011;13818;52.156;5.382;2023-02-23T05:48:55;86.15;;;26.20;;
26042;SDS011;13818;52.156;5.382;2023-02-23T05:51:23;78.03;;;24.30;;
26042;SDS011;13818;52.156;5.382;2023-02-23T05:53:50;82.43;;;25.48;;
26042;SDS011;13818;52.156;5.382;2023-02-23T05:56:17;84.90;;;26.15;;
26042;SDS011;13818;52.156;5.382;2023-02-23T05:58:45;83.55;;;25.42;;
26042;SDS011;13818;52.156;5.382;2023-02-23T06:01:13;78.40;;;25.88;;
26042;SDS011;13818;52.156;5.382;2023-02-23T06:03:40;85.28;;;24.33;;
26042;SDS011;13818;52.156;5.382;2023-02-23T06:06:06;83.00;;;24.60;;
26042;SDS011;13818;52.156;5.382;2023-02-23T06:08:33;81.05;;;24.80;;
26042;SDS011;13818;52.156;5.382;2023-02-23T06:10:59;84.47;;;23.50;;
26042;SDS011;13818;52.156;5.382;2023-02-23T06:13:26;80.43;;;23.60;;
26042;SDS011;13818;52.156;5.382;2023-02-23T06:15:53;77.22;;;24.20;;
26042;SDS011;13818;52.156;5.382;2023-02-23T06:18:21;73.95;;;22.02;;
26042;SDS011;13818;52.156;5.382;2023-02-23T06:20:47;81.60;;;25.25;;
26042;SDS011;13818;52.156;5.382;2023-02-23T06:23:14;84.47;;;24.00;;
26042;SDS011;13818;52.156;5.382;2023-02-23T06:25:40;75.45;;;22.02;;
26042;SDS011;13818;52.156;5.382;2023-02-23T06:28:07;74.28;;;24.73;;
26042;SDS011;13818;52.156;5.382;2023-02-23T06:30:34;82.80;;;24.15;;
26042;SDS011;13818;52.156;5.382;2023-02-23T06:33:03;73.05;;;24.63;;
26042;SDS011;13818;52.156;5.382;2023-02-23T06:35:32;83.28;;;23.83;;
26042;SDS011;13818;52.156;5.382;2023-02-23T06:37:59;77.70;;;24.33;;
26042;SDS011;13818;52.156;5.382;2023-02-23T06:40:27;82.43;;;23.80;;
26042;SDS011;13818;52.156;5.382;2023-02-23T06:42:54;83.38;;;23.00;;
26042;SDS011;13818;52.156;5.382;2023-02-23T06:45:21;66.47;;;23.35;;
26042;SDS011;13818;52.156;5.382;2023-02-23T06:47:47;78.07;;;22.20;;
26042;SDS011;13818;52.156;5.382;2023-02-23T06:50:14;78.20;;;24.73;;
26042;SDS011;13818;52.156;5.382;2023-02-23T06:52:42;74.25;;;22.58;;
26042;SDS011;13818;52.156;5.382;2023-02-23T06:55:09;79.95;;;23.15;;
26042;SDS011;13818;52.156;5.382;2023-02-23T06:57:37;74.95;;;23.48;;
26042;SDS011;13818;52.156;5.382;2023-02-23T07:00:04;77.38;;;22.70;;
26042;SDS011;13818;52.156;5.382;2023-02-23T07:02:31;70.85;;;22.60;;
26042;SDS011;13818;52.156;5.382;2023-02-23T07:04:59;74.47;;;22.05;;
26042;SDS011;13818;52.156;5.382;2023-02-23T07:07:25;74.78;;;23.30;;
26042;SDS011;13818;52.156;5.382;2023-02-23T07:09:53;78.07;;;23.85;;
26042;SDS011;13818;52.156;5.382;2023-02-23T07:12:19;71.97;;;21.88;;
26042;SDS011;13818;52.156;5.382;2023-02-23T07:14:46;76.47;;;22.63;;
26042;SDS011;13818;52.156;5.382;2023-02-23T07:17:12;77.97;;;24.58;;
26042;SDS011;13818;52.156;5.382;2023-02-23T07:19:39;71.25;;;22.15;;
26042;SDS011;13818;52.156;5.382;2023-02-23T07:22:05;78.53;;;23.10;;
26042;SDS011;13818;52.156;5.382;2023-02-23T07:24:32;71.07;;;24.05;;
26042;SDS011;13818;52.156;5.382;2023-02-23T07:27:00;77.47;;;23.95;;
26042;SDS011;13818;52.156;5.382;2023-02-23T07:29:27;82.00;;;25.58;;
26042;SDS011;13818;52.156;5.382;2023-02-23T07:31:54;78.80;;;23.23;;
26042;SDS011;13818;52.156;5.382;2023-02-23T07:34:20;75.10;;;22.23;;
26042;SDS011;13818;52.156;5.382;2023-02-23T07:36:47;71.82;;;22.88;;
26042;SDS011;13818;52.156;5.382;2023-02-23T07:39:14;79.68;;;24.48;;
26042;SDS011;13818;52.156;5.382;2023-02-23T07:41:40;73.15;;;21.98;;
26042;SDS011;13818;52.156;5.382;2023-02-23T07:44:08;81.88;;;24.30;;
26042;SDS011;13818;52.156;5.382;2023-02-23T07:46:35;74.25;;;23.60;;
26042;SDS011;13818;52.156;5.382;2023-02-23T07:49:02;75.55;;;22.08;;
26042;SDS011;13818;52.156;5.382;2023-02-23T07:51:28;74.78;;;24.35;;
26042;SDS011;13818;52.156;5.382;2023-02-23T07:53:55;83.70;;;24.88;;
26042;SDS011;13818;52.156;5.382;2023-02-23T07:56:21;77.10;;;23.48;;
26042;SDS011;13818;52.156;5.382;2023-02-23T07:58:48;78.90;;;23.88;;
26042;SDS011;13818;52.156;5.382;2023-02-23T08:01:16;77.40;;;23.35;;
26042;SDS011;13818;52.156;5.382;2023-02-23T08:03:42;68.13;;;22.02;;
26042;SDS011;13818;52.156;5.382;2023-02-23T08:06:13;83.05;;;23.88;;
26042;SDS011;13818;52.156;5.382;2023-02-23T08:08:41;90.32;;;26.42;;
26042;SDS011;13818;52.156;5.382;2023-02-23T08:11:07;66.88;;;22.75;;
26042;SDS011;13818;52.156;5.382;2023-02-23T08:13:35;78.72;;;23.42;;
26042;SDS011;13818;52.156;5.382;2023-02-23T08:16:01;75.47;;;24.13;;
26042;SDS011;13818;52.156;5.382;2023-02-23T08:18:29;72.15;;;21.45;;
26042;SDS011;13818;52.156;5.382;2023-02-23T08:20:56;80.00;;;22.75;;
26042;SDS011;13818;52.156;5.382;2023-02-23T08:23:23;70.57;;;21.63;;
26042;SDS011;13818;52.156;5.382;2023-02-23T08:25:50;71.50;;;22.30;;
26042;SDS011;13818;52.156;5.382;2023-02-23T08:28:17;72.32;;;22.42;;
26042;SDS011;13818;52.156;5.382;2023-02-23T08:30:44;75.03;;;22.30;;
26042;SDS011;13818;52.156;5.382;2023-02-23T08:33:10;70.28;;;21.23;;
26042;SDS011;13818;52.156;5.382;2023-02-23T08:35:38;68.20;;;20.63;;
26042;SDS011;13818;52.156;5.382;2023-02-23T08:38:05;79.72;;;22.50;;
26042;SDS011;13818;52.156;5.382;2023-02-23T08:40:31;66.45;;;20.15;;
26042;SDS011;13818;52.156;5.382;2023-02-23T08:42:58;70.18;;;20.92;;
26042;SDS011;13818;52.156;5.382;2023-02-23T08:45:24;74.70;;;21.52;;
26042;SDS011;13818;52.156;5.382;2023-02-23T08:47:53;71.28;;;19.95;;
26042;SDS011;13818;52.156;5.382;2023-02-23T08:50:20;65.70;;;20.52;;
26042;SDS011;13818;52.156;5.382;2023-02-23T08:52:48;64.75;;;18.60;;
26042;SDS011;13818;52.156;5.382;2023-02-23T08:55:14;68.15;;;17.77;;
26042;SDS011;13818;52.156;5.382;2023-02-23T08:57:42;68.45;;;20.02;;
26042;SDS011;13818;52.156;5.382;2023-02-23T09:00:09;68.47;;;19.45;;
26042;SDS011;13818;52.156;5.382;2023-02-23T09:02:41;71.05;;;20.42;;
26042;SDS011;13818;52.156;5.382;2023-02-23T09:05:08;62.90;;;19.95;;
26042;SDS011;13818;52.156;5.382;2023-02-23T09:07:36;60.47;;;19.38;;
26042;SDS011;13818;52.156;5.382;2023-02-23T09:10:05;66.20;;;18.67;;
26042;SDS011;13818;52.156;5.382;2023-02-23T09:12:33;57.08;;;19.15;;
26042;SDS011;13818;52.156;5.382;2023-02-23T09:14:59;60.30;;;15.90;;
26042;SDS011;13818;52.156;5.382;2023-02-23T09:17:26;61.65;;;16.83;;
26042;SDS011;13818;52.156;5.382;2023-02-23T09:19:52;56.10;;;16.73;;
26042;SDS011;13818;52.156;5.382;2023-02-23T09:22:19;56.05;;;14.95;;
26042;SDS011;13818;52.156;5.382;2023-02-23T09:24:46;50.85;;;15.00;;
26042;SDS011;13818;52.156;5.382;2023-02-23T09:27:13;48.65;;;14.68;;
26042;SDS011;13818;52.156;5.382;2023-02-23T09:29:40;60.33;;;16.30;;
26042;SDS011;13818;52.156;5.382;2023-02-23T09:32:07;53.33;;;14.98;;
26042;SDS011;13818;52.156;5.382;2023-02-23T09:34:34;53.65;;;14.98;;
26042;SDS011;13818;52.156;5.382;2023-02-23T09:37:01;48.72;;;14.07;;
26042;SDS011;13818;52.156;5.382;2023-02-23T09:39:28;44.25;;;13.70;;
26042;SDS011;13818;52.156;5.382;2023-02-23T09:42:09;45.92;;;14.00;;
26042;SDS011;13818;52.156;5.382;2023-02-23T09:44:48;42.35;;;12.70;;
26042;SDS011;13818;52.156;5.382;2023-02-23T09:47:25;52.53;;;14.65;;
26042;SDS011;13818;52.156;5.382;2023-02-23T09:50:01;47.38;;;14.50;;
26042;SDS011;13818;52.156;5.382;2023-02-23T09:52:35;47.28;;;12.40;;
26042;SDS011;13818;52.156;5.382;2023-02-23T09:55:05;41.83;;;11.90;;
26042;SDS011;13818;52.156;5.382;2023-02-23T09:57:37;44.15;;;13.23;;
26042;SDS011;13818;52.156;5.382;2023-02-23T10:00:10;50.60;;;14.18;;
26042;SDS011;13818;52.156;5.382;2023-02-23T10:02:50;53.38;;;13.55;;
26042;SDS011;13818;52.156;5.382;2023-02-23T10:05:24;55.92;;;14.13;;
26042;SDS011;13818;52.156;5.382;2023-02-23T10:07:57;46.78;;;13.77;;
26042;SDS011;13818;52.156;5.382;2023-02-23T10:10:30;47.55;;;12.93;;
26042;SDS011;13818;52.156;5.382;2023-02-23T10:13:06;41.33;;;12.90;;
26042;SDS011;13818;52.156;5.382;2023-02-23T10:15:45;46.20;;;13.38;;
26042;SDS011;13818;52.156;5.382;2023-02-23T10:18:18;49.53;;;13.25;;
26042;SDS011;13818;52.156;5.382;2023-02-23T10:20:52;46.38;;;12.95;;
26042;SDS011;13818;52.156;5.382;2023-02-23T10:23:26;53.28;;;14.43;;
26042;SDS011;13818;52.156;5.382;2023-02-23T10:25:56;40.58;;;12.07;;
26042;SDS011;13818;52.156;5.382;2023-02-23T10:30:55;40.97;;;11.13;;
26042;SDS011;13818;52.156;5.382;2023-02-23T10:33:23;48.67;;;12.95;;
26042;SDS011;13818;52.156;5.382;2023-02-23T10:35:59;38.22;;;10.73;;
26042;SDS011;13818;52.156;5.382;2023-02-23T10:38:36;38.50;;;11.48;;
26042;SDS011;13818;52.156;5.382;2023-02-23T10:41:03;49.35;;;10.68;;
26042;SDS011;13818;52.156;5.382;2023-02-23T10:43:31;41.70;;;10.60;;
26042;SDS011;13818;52.156;5.382;2023-02-23T10:45:58;40.50;;;12.40;;
26042;SDS011;13818;52.156;5.382;2023-02-23T10:48:25;40.58;;;9.98;;
26042;SDS011;13818;52.156;5.382;2023-02-23T10:50:56;40.55;;;11.18;;
26042;SDS011;13818;52.156;5.382;2023-02-23T10:53:27;39.05;;;11.68;;
26042;SDS011;13818;52.156;5.382;2023-02-23T10:56:00;41.60;;;11.40;;
26042;SDS011;13818;52.156;5.382;2023-02-23T10:58:32;34.33;;;10.55;;
26042;SDS011;13818;52.156;5.382;2023-02-23T11:01:05;38.97;;;11.50;;
26042;SDS011;13818;52.156;5.382;2023-02-23T11:03:33;35.35;;;10.35;;
26042;SDS011;13818;52.156;5.382;2023-02-23T11:06:02;38.22;;;10.70;;
26042;SDS011;13818;52.156;5.382;2023-02-23T11:08:30;37.83;;;10.95;;
26042;SDS011;13818;52.156;5.382;2023-02-23T11:10:59;31.02;;;10.82;;
26042;SDS011;13818;52.156;5.382;2023-02-23T11:13:28;39.42;;;11.68;;
26042;SDS011;13818;52.156;5.382;2023-02-23T11:16:01;39.05;;;11.82;;
26042;SDS011;13818;52.156;5.382;2023-02-23T11:20:57;33.58;;;10.80;;
26042;SDS011;13818;52.156;5.382;2023-02-23T11:23:24;37.70;;;10.88;;
26042;SDS011;13818;52.156;5.382;2023-02-23T11:25:56;36.40;;;10.32;;
26042;SDS011;13818;52.156;5.382;2023-02-23T11:28:26;33.65;;;10.02;;
26042;SDS011;13818;52.156;5.382;2023-02-23T11:30:57;29.65;;;8.85;;
26042;SDS011;13818;52.156;5.382;2023-02-23T11:33:29;27.15;;;8.73;;
26042;SDS011;13818;52.156;5.382;2023-02-23T11:36:00;25.17;;;9.13;;
26042;SDS011;13818;52.156;5.382;2023-02-23T11:38:40;23.35;;;7.03;;
26042;SDS011;13818;52.156;5.382;2023-02-23T11:41:16;27.48;;;7.15;;
26042;SDS011;13818;52.156;5.382;2023-02-23T11:43:46;30.38;;;8.85;;
26042;SDS011;13818;52.156;5.382;2023-02-23T11:46:14;30.10;;;8.90;;
26042;SDS011;13818;52.156;5.382;2023-02-23T11:48:42;33.38;;;8.80;;
26042;SDS011;13818;52.156;5.382;2023-02-23T11:51:21;36.53;;;9.63;;
26042;SDS011;13818;52.156;5.382;2023-02-23T11:53:49;36.28;;;9.27;;
26042;SDS011;13818;52.156;5.382;2023-02-23T11:56:16;31.65;;;8.80;;
26042;SDS011;13818;52.156;5.382;2023-02-23T11:58:47;28.77;;;8.88;;
26042;SDS011;13818;52.156;5.382;2023-02-23T12:01:16;29.57;;;7.00;;
26042;SDS011;13818;52.156;5.382;2023-02-23T12:03:48;32.13;;;9.27;;
26042;SDS011;13818;52.156;5.382;2023-02-23T12:06:27;28.40;;;8.73;;
26042;SDS011;13818;52.156;5.382;2023-02-23T12:08:56;33.63;;;9.60;;
26042;SDS011;13818;52.156;5.382;2023-02-23T12:11:30;35.28;;;10.73;;
26042;SDS011;13818;52.156;5.382;2023-02-23T12:14:02;34.80;;;9.32;;
26042;SDS011;13818;52.156;5.382;2023-02-23T12:16:38;32.88;;;10.05;;
26042;SDS011;13818;52.156;5.382;2023-02-23T12:19:11;36.00;;;10.52;;
26042;SDS011;13818;52.156;5.382;2023-02-23T12:21:50;31.98;;;9.20;;
26042;SDS011;13818;52.156;5.382;2023-02-23T12:24:27;32.60;;;9.70;;
26042;SDS011;13818;52.156;5.382;2023-02-23T12:27:00;30.45;;;9.57;;
26042;SDS011;13818;52.156;5.382;2023-02-23T12:29:38;34.45;;;10.30;;
26042;SDS011;13818;52.156;5.382;2023-02-23T12:32:17;34.08;;;8.90;;
26042;SDS011;13818;52.156;5.382;2023-02-23T12:34:46;32.38;;;10.52;;
26042;SDS011;13818;52.156;5.382;2023-02-23T12:37:21;34.88;;;9.80;;
26042;SDS011;13818;52.156;5.382;2023-02-23T12:40:03;30.33;;;9.98;;
26042;SDS011;13818;52.156;5.382;2023-02-23T12:42:38;31.33;;;8.68;;
26042;SDS011;13818;52.156;5.382;2023-02-23T12:45:09;32.08;;;9.27;;
26042;SDS011;13818;52.156;5.382;2023-02-23T12:47:46;33.88;;;8.63;;
26042;SDS011;13818;52.156;5.382;2023-02-23T12:50:20;32.97;;;9.57;;
26042;SDS011;13818;52.156;5.382;2023-02-23T12:52:52;33.75;;;8.57;;
26042;SDS011;13818;52.156;5.382;2023-02-23T12:55:25;29.58;;;8.52;;
26042;SDS011;13818;52.156;5.382;2023-02-23T12:57:57;30.42;;;8.98;;
26042;SDS011;13818;52.156;5.382;2023-02-23T13:00:36;36.70;;;10.60;;
26042;SDS011;13818;52.156;5.382;2023-02-23T13:03:23;39.55;;;10.05;;
26042;SDS011;13818;52.156;5.382;2023-02-23T13:06:03;34.40;;;9.88;;
26042;SDS011;13818;52.156;5.382;2023-02-23T13:08:40;35.75;;;9.77;;
26042;SDS011;13818;52.156;5.382;2023-02-23T13:11:20;28.75;;;8.57;;
26042;SDS011;13818;52.156;5.382;2023-02-23T13:14:02;33.67;;;9.55;;
26042;SDS011;13818;52.156;5.382;2023-02-23T13:16:37;31.90;;;10.60;;
26042;SDS011;13818;52.156;5.382;2023-02-23T13:19:11;33.60;;;10.00;;
26042;SDS011;13818;52.156;5.382;2023-02-23T13:21:43;29.17;;;9.02;;
26042;SDS011;13818;52.156;5.382;2023-02-23T13:24:15;29.10;;;7.88;;
26042;SDS011;13818;52.156;5.382;2023-02-23T13:26:45;30.42;;;9.27;;
26042;SDS011;13818;52.156;5.382;2023-02-23T13:29:23;24.58;;;8.35;;
26042;SDS011;13818;52.156;5.382;2023-02-23T13:31:57;26.17;;;7.85;;
26042;SDS011;13818;52.156;5.382;2023-02-23T13:34:26;23.80;;;7.43;;
26042;SDS011;13818;52.156;5.382;2023-02-23T13:36:55;23.88;;;7.43;;
26042;SDS011;13818;52.156;5.382;2023-02-23T13:39:29;22.02;;;7.43;;
26042;SDS011;13818;52.156;5.382;2023-02-23T13:44:57;24.80;;;7.55;;
26042;SDS011;13818;52.156;5.382;2023-02-23T13:47:33;24.90;;;8.35;;
26042;SDS011;13818;52.156;5.382;2023-02-23T13:50:15;29.10;;;8.63;;
26042;SDS011;13818;52.156;5.382;2023-02-23T13:52:45;24.85;;;7.88;;
26042;SDS011;13818;52.156;5.382;2023-02-23T13:58:02;24.35;;;7.20;;
26042;SDS011;13818;52.156;5.382;2023-02-23T14:00:31;20.90;;;7.15;;
26042;SDS011;13818;52.156;5.382;2023-02-23T14:03:00;21.90;;;7.30;;
26042;SDS011;13818;52.156;5.382;2023-02-23T14:05:30;20.83;;;6.75;;
26042;SDS011;13818;52.156;5.382;2023-02-23T14:08:07;31.25;;;8.25;;
26042;SDS011;13818;52.156;5.382;2023-02-23T14:10:48;27.40;;;8.15;;
26042;SDS011;13818;52.156;5.382;2023-02-23T14:13:27;28.73;;;7.72;;
26042;SDS011;13818;52.156;5.382;2023-02-23T14:16:09;28.30;;;7.73;;
26042;SDS011;13818;52.156;5.382;2023-02-23T14:18:56;27.98;;;7.35;;
26042;SDS011;13818;52.156;5.382;2023-02-23T14:21:33;31.02;;;8.75;;
26042;SDS011;13818;52.156;5.382;2023-02-23T14:24:04;30.45;;;8.07;;
26042;SDS011;13818;52.156;5.382;2023-02-23T14:26:42;28.48;;;9.80;;
26042;SDS011;13818;52.156;5.382;2023-02-23T14:29:27;30.58;;;9.18;;
26042;SDS011;13818;52.156;5.382;2023-02-23T14:31:58;25.15;;;7.93;;
26042;SDS011;13818;52.156;5.382;2023-02-23T14:37:24;30.75;;;10.10;;
26042;SDS011;13818;52.156;5.382;2023-02-23T14:39:55;37.00;;;10.43;;
26042;SDS011;13818;52.156;5.382;2023-02-23T14:42:28;36.08;;;10.85;;
26042;SDS011;13818;52.156;5.382;2023-02-23T14:44:54;41.97;;;10.27;;
26042;SDS011;13818;52.156;5.382;2023-02-23T14:47:24;36.17;;;10.43;;
26042;SDS011;13818;52.156;5.382;2023-02-23T14:49:53;42.33;;;13.40;;
26042;SDS011;13818;52.156;5.382;2023-02-23T14:52:23;34.67;;;11.18;;
26042;SDS011;13818;52.156;5.382;2023-02-23T14:55:03;46.35;;;11.40;;
26042;SDS011;13818;52.156;5.382;2023-02-23T14:57:34;43.28;;;12.40;;
26042;SDS011;13818;52.156;5.382;2023-02-23T15:00:06;48.58;;;12.80;;
26042;SDS011;13818;52.156;5.382;2023-02-23T15:02:38;54.53;;;14.65;;
26042;SDS011;13818;52.156;5.382;2023-02-23T15:05:13;66.57;;;15.93;;
26042;SDS011;13818;52.156;5.382;2023-02-23T15:07:41;43.30;;;12.40;;
26042;SDS011;13818;52.156;5.382;2023-02-23T15:10:11;43.55;;;12.50;;
26042;SDS011;13818;52.156;5.382;2023-02-23T15:12:44;33.15;;;8.73;;